Atlantic Island — C4VM2 — position and weather

sailwx.info

Track history (hours):
 
Tides and Currents Weather Stations Pressure Air Temp Water Temp Dewpoint Dewpoint Depression Visibility Wind Speed Wind Dir Waves Ship Positions

Atlantic Island

Last reported at 2014-Oct-02 19:33 UTC. Time now 2014-Oct-23 01:33 UTC.
Position N 35°56' W 005°21'.
Warning: this ship's position is 20 days out of date.

Length 95 m; draft 5.8 m.

Type: Cargo ship. MMSI: 210754000.

Date/timePositionNaut miles runAvg speedWind from/ knotsBaromVisibWave heightAir tempDewpointWater temp
2014-Oct-02 19:33N 35°56' W 005°21'3 2.5
2014-Oct-02 18:31N 35°54' W 005°19'0 0.0
2014-Oct-02 17:31N 35°54' W 005°19'0 0.0
2014-Oct-02 16:28N 35°54' W 005°19'1 0.9
2014-Oct-02 15:34N 35°54' W 005°18'222 8.9
2014-Oct-01 14:33N 37°16' W 001°01'1310.7
2014-Oct-01 13:23N 37°24' W 000°49'1010.6
2014-Oct-01 12:28N 37°30' W 000°40'1010.4
2014-Oct-01 11:33N 37°37' W 000°31'1110.4
2014-Oct-01 10:29N 37°47' W 000°24'1010.2
2014-Oct-01 09:30N 37°55' W 000°18'  
Track history (hours):
 
Tides and Currents Weather Stations Pressure Air Temp Water Temp Dewpoint Dewpoint Depression Visibility Wind Speed Wind Dir Waves Ship Positions

Atlantic Island

Last reported at 2014-Oct-02 19:33 UTC. Time now 2014-Oct-23 01:33 UTC.
Position N 35°56' W 005°21'.
Warning: this ship's position is 20 days out of date.

Length 95 m; draft 5.8 m.

Type: Cargo ship. MMSI: 210754000.

Date/timePositionNaut miles runAvg speedWind from/ knotsBaromVisibWave heightAir tempDewpointWater temp
2014-Oct-02 19:33N 35°56' W 005°21'3 2.5
2014-Oct-02 18:31N 35°54' W 005°19'0 0.0
2014-Oct-02 17:31N 35°54' W 005°19'0 0.0
2014-Oct-02 16:28N 35°54' W 005°19'1 0.9
2014-Oct-02 15:34N 35°54' W 005°18'222 8.9
2014-Oct-01 14:33N 37°16' W 001°01'1310.7
2014-Oct-01 13:23N 37°24' W 000°49'1010.6
2014-Oct-01 12:28N 37°30' W 000°40'1010.4
2014-Oct-01 11:33N 37°37' W 000°31'1110.4
2014-Oct-01 10:29N 37°47' W 000°24'1010.2
2014-Oct-01 09:30N 37°55' W 000°18'  

Dump ship's entire track history